Time;durP1;ratioP1;P1;durP2;ratioP2;P2;SDS_P1;SDS_P2;PMS_P1;PMS_P2;Temp;Humidity;BMP_temperature;BMP_pressure;BME280_temperature;BME280_humidity;BME280_pressure;Samples;Min_cycle;Max_cycle;Signal;HPM_P1;HPM_P2
2023/07/21 00:00:56;;;;;;;7.37;3.95;;;;;;;19.98;94.85;100001.53;5547094;32;34658;-60
2023/07/21 00:03:59;;;;;;;6.80;3.83;;;;;;;19.91;95.20;99991.69;5546933;32;34213;-60
2023/07/21 00:07:02;;;;;;;8.20;3.90;;;;;;;19.92;95.69;100001.41;5547336;32;33732;-60
2023/07/21 00:10:07;;;;;;;8.50;4.65;;;;;;;19.87;95.31;100001.31;5546948;32;34210;-60
2023/07/21 00:13:11;;;;;;;11.43;4.50;;;;;;;19.85;94.37;99997.19;5546810;32;35200;-60
2023/07/21 00:16:14;;;;;;;5.80;4.22;;;;;;;19.82;94.96;99992.31;5546829;32;33808;-60
2023/07/21 00:19:17;;;;;;;9.88;4.90;;;;;;;19.76;97.28;99988.69;5546808;32;34073;-60
2023/07/21 00:22:21;;;;;;;7.60;4.87;;;;;;;19.70;97.88;99986.13;5533125;32;34153;-60
2023/07/21 00:25:24;;;;;;;11.95;4.75;;;;;;;19.70;97.47;99996.91;5546721;32;34062;-61
2023/07/21 00:28:27;;;;;;;8.82;3.35;;;;;;;19.68;97.50;99997.12;5533018;32;33918;-60
2023/07/21 00:31:31;;;;;;;8.05;3.30;;;;;;;19.69;98.23;99998.78;5546698;32;34107;-60
2023/07/21 00:34:35;;;;;;;5.87;2.83;;;;;;;19.68;98.38;99999.00;5546506;32;34248;-60
2023/07/21 00:37:39;;;;;;;4.20;2.53;;;;;;;19.68;98.51;99999.00;5519969;32;35438;-61
2023/07/21 00:40:44;;;;;;;5.28;2.35;;;;;;;19.78;94.63;99994.66;5546509;32;34118;-60
2023/07/21 00:43:46;;;;;;;4.70;2.03;;;;;;;19.95;89.36;100002.81;5546439;32;33943;-60
2023/07/21 00:46:50;;;;;;;6.70;2.50;;;;;;;19.86;89.06;99999.66;5546281;32;33056;-60
2023/07/21 00:49:53;;;;;;;6.68;2.10;;;;;;;19.75;88.06;100000.50;5546112;32;33961;-60
2023/07/21 00:52:58;;;;;;;4.05;2.58;;;;;;;19.87;87.77;100006.69;5532448;32;33699;-60
2023/07/21 00:56:02;;;;;;;9.93;2.60;;;;;;;19.87;90.12;99992.41;5534953;32;33120;-60
2023/07/21 00:59:05;;;;;;;4.43;2.40;;;;;;;19.95;90.97;99992.03;5535150;32;34225;-60
2023/07/21 01:02:08;;;;;;;9.07;2.80;;;;;;;20.10;89.41;99992.34;5548900;32;35160;-60
2023/07/21 01:05:12;;;;;;;8.95;2.90;;;;;;;20.32;90.79;99984.47;5548916;32;35228;-60
2023/07/21 01:08:17;;;;;;;4.32;2.58;;;;;;;20.33;90.08;99983.41;5548871;32;34023;-60
2023/07/21 01:11:21;;;;;;;9.93;2.60;;;;;;;20.39;88.15;99994.03;5535054;32;33979;-60
2023/07/21 01:14:25;;;;;;;6.72;2.40;;;;;;;20.32;89.06;99987.97;5548711;32;34044;-60
2023/07/21 01:17:30;;;;;;;8.65;2.65;;;;;;;20.41;88.61;99991.09;5548681;32;34924;-60
2023/07/21 01:20:33;;;;;;;6.18;2.33;;;;;;;20.37;89.57;99985.37;5522469;32;33873;-60
2023/07/21 01:23:56;;;;;;;6.10;2.60;;;;;;;20.33;90.40;99983.41;5548607;32;34133;-60
2023/07/21 01:26:59;;;;;;;6.03;2.35;;;;;;;20.36;90.16;99985.59;5548758;32;34737;-60
2023/07/21 01:30:02;;;;;;;4.72;2.40;;;;;;;20.30;90.28;99982.00;5534893;32;34559;-60
2023/07/21 01:33:10;;;;;;;5.85;2.67;;;;;;;20.10;92.76;99981.56;5548855;32;34055;-60
2023/07/21 01:36:15;;;;;;;4.05;2.28;;;;;;;19.99;94.28;99987.00;5548876;32;33827;-60
2023/07/21 01:39:19;;;;;;;4.68;2.50;;;;;;;19.93;94.43;99989.59;5534927;32;34155;-60
2023/07/21 01:42:29;;;;;;;5.75;2.58;;;;;;;19.83;95.64;99986.69;5534972;32;35024;-60
2023/07/21 01:45:33;;;;;;;5.72;2.53;;;;;;;20.00;93.20;99988.63;5534880;32;34483;-60
2023/07/21 01:48:40;;;;;;;10.23;2.78;;;;;;;20.00;92.42;99980.53;5548476;32;33085;-60
2023/07/21 01:51:46;;;;;;;5.22;2.28;;;;;;;20.01;92.34;99984.88;5548279;32;33763;-60
2023/07/21 01:54:56;;;;;;;4.70;2.62;;;;;;;20.02;92.42;99991.91;5548362;32;33895;-60
2023/07/21 01:58:03;;;;;;;6.40;2.65;;;;;;;20.17;91.40;100009.19;5534609;32;34645;-60
2023/07/21 02:01:08;;;;;;;6.37;2.50;;;;;;;20.18;93.29;99994.69;5535047;32;34589;-60
2023/07/21 02:04:13;;;;;;;4.53;2.40;;;;;;;20.19;93.51;99990.91;5534670;32;34083;-60
2023/07/21 02:07:20;;;;;;;3.90;2.50;;;;;;;20.15;93.12;100003.22;5547852;32;34888;-60
2023/07/21 02:10:24;;;;;;;3.40;2.03;;;;;;;20.22;93.82;100000.41;5548596;32;34089;-60
2023/07/21 02:13:31;;;;;;;5.22;2.33;;;;;;;20.12;96.48;100000.19;5548250;32;33513;-60
2023/07/21 02:16:35;;;;;;;4.57;2.72;;;;;;;20.08;99.65;100002.56;5548265;32;34019;-60
2023/07/21 02:19:38;;;;;;;4.57;2.70;;;;;;;20.12;100.00;99997.50;5548268;32;33950;-61
2023/07/21 02:22:43;;;;;;;6.75;2.62;;;;;;;20.22;100.00;99997.69;5548228;32;34188;-60
2023/07/21 02:25:46;;;;;;;9.32;3.08;;;;;;;20.31;100.00;100001.69;5548495;32;34563;-60
2023/07/21 02:28:50;;;;;;;6.97;2.80;;;;;;;20.32;98.58;100006.84;5548126;32;33887;-60
2023/07/21 02:31:53;;;;;;;6.12;2.53;;;;;;;20.34;92.07;100004.69;5548186;32;34322;-60
2023/07/21 02:34:58;;;;;;;8.38;2.97;;;;;;;20.43;90.57;100012.41;5548097;32;34191;-60
2023/07/21 02:38:05;;;;;;;3.72;2.12;;;;;;;20.37;88.87;100008.81;5534640;32;33842;-60
2023/07/21 02:41:09;;;;;;;7.95;2.40;;;;;;;20.28;88.28;100016.41;5548092;32;34513;-60
2023/07/21 02:44:12;;;;;;;5.00;2.28;;;;;;;20.32;87.49;100014.09;5548092;32;34017;-60
2023/07/21 02:47:16;;;;;;;6.53;2.40;;;;;;;20.44;89.71;100009.47;5548080;32;34161;-60
2023/07/21 02:50:20;;;;;;;4.80;2.37;;;;;;;20.42;96.08;100003.50;5547992;32;33722;-60
2023/07/21 02:53:23;;;;;;;5.03;2.22;;;;;;;20.16;99.84;100001.34;5548315;32;34698;-60
2023/07/21 02:56:28;;;;;;;4.78;2.15;;;;;;;20.12;98.20;100000.19;5548262;32;34752;-60
2023/07/21 02:59:32;;;;;;;6.12;2.17;;;;;;;20.00;98.98;99999.41;5538233;32;34212;-60
2023/07/21 03:02:35;;;;;;;4.00;1.90;;;;;;;19.94;97.86;100007.38;5548343;32;33911;-60
2023/07/21 03:05:41;;;;;;;3.53;2.00;;;;;;;20.09;93.17;100025.72;5534660;32;33758;-60
2023/07/21 03:08:44;;;;;;;9.07;2.10;;;;;;;20.17;91.22;100021.84;5534158;32;33925;-60
2023/07/21 03:11:47;;;;;;;4.55;1.87;;;;;;;20.05;88.22;100035.31;5548081;32;34239;-60
2023/07/21 03:14:52;;;;;;;3.83;2.30;;;;;;;20.05;87.99;100039.88;5534416;32;34022;-60
2023/07/21 03:17:56;;;;;;;5.43;2.00;;;;;;;19.95;86.71;100027.84;5533168;32;34403;-60
2023/07/21 03:20:59;;;;;;;6.12;2.08;;;;;;;20.09;86.28;100025.72;5547989;32;34164;-60
2023/07/21 03:24:02;;;;;;;8.80;2.12;;;;;;;19.98;85.38;100029.28;5547853;32;34753;-60
2023/07/21 03:27:06;;;;;;;5.20;2.30;;;;;;;19.98;84.92;100034.66;5547788;32;33714;-60
2023/07/21 03:30:10;;;;;;;6.62;2.20;;;;;;;20.17;84.01;100038.00;5547680;32;34492;-60
2023/07/21 03:33:14;;;;;;;6.30;2.45;;;;;;;20.12;83.44;100033.34;5547578;32;33803;-60
2023/07/21 03:36:21;;;;;;;5.60;2.33;;;;;;;20.05;83.62;100032.63;5533978;32;33923;-60
2023/07/21 03:39:24;;;;;;;6.07;2.33;;;;;;;20.14;83.35;100027.72;5547755;32;34015;-60
2023/07/21 03:42:27;;;;;;;4.45;2.08;;;;;;;20.07;83.45;100029.72;5547464;32;33800;-60
2023/07/21 03:45:33;;;;;;;4.05;2.30;;;;;;;20.27;83.11;100027.44;5547539;32;33667;-60
2023/07/21 03:48:39;;;;;;;4.40;2.40;;;;;;;20.04;84.18;100022.94;5547322;32;34336;-61
2023/07/21 03:51:42;;;;;;;4.57;2.28;;;;;;;20.00;85.29;100037.91;5547407;32;34024;-60
2023/07/21 03:54:46;;;;;;;5.85;2.42;;;;;;;20.01;85.70;100039.56;5547181;32;34060;-61
2023/07/21 03:57:50;;;;;;;5.82;2.20;;;;;;;19.88;87.27;100032.56;5547183;32;33445;-61
2023/07/21 04:00:53;;;;;;;6.62;2.15;;;;;;;19.76;88.87;100022.84;5547126;32;34159;-61
2023/07/21 04:03:56;;;;;;;8.50;2.37;;;;;;;19.89;89.66;100031.53;5547165;32;34084;-61
2023/07/21 04:07:01;;;;;;;8.25;2.42;;;;;;;19.84;89.82;100030.59;5533456;32;35020;-61
2023/07/21 04:10:05;;;;;;;3.50;2.22;;;;;;;19.80;90.68;100032.12;5547028;32;33757;-61
2023/07/21 04:13:09;;;;;;;7.78;2.50;;;;;;;20.05;90.18;100034.50;5533389;32;33817;-61
2023/07/21 04:16:15;;;;;;;9.32;2.58;;;;;;;20.11;90.03;100036.25;5527489;32;33388;-61
2023/07/21 04:19:18;;;;;;;4.05;2.40;;;;;;;20.26;89.27;100031.19;5527577;32;35342;-60
2023/07/21 04:22:22;;;;;;;4.12;2.22;;;;;;;20.61;87.65;100026.50;5527322;32;35032;-61
2023/07/21 04:25:25;;;;;;;4.12;2.15;;;;;;;20.81;83.87;100043.06;5527158;32;34530;-61
2023/07/21 04:28:29;;;;;;;4.37;2.20;;;;;;;21.03;85.18;100031.53;5527187;32;33261;-61
2023/07/21 04:31:32;;;;;;;16.37;2.72;;;;;;;21.29;82.36;100033.63;5521428;32;32780;-61
2023/07/21 04:34:35;;;;;;;13.88;2.62;;;;;;;21.49;80.62;100027.72;5548630;32;34294;-61
2023/07/21 04:37:38;;;;;;;11.70;2.90;;;;;;;21.57;79.30;100027.28;5549034;32;34029;-61
2023/07/21 04:40:45;;;;;;;6.87;2.72;;;;;;;21.65;78.41;100040.34;5530970;32;35183;-60
2023/07/21 04:43:48;;;;;;;6.37;2.60;;;;;;;21.61;79.50;100033.81;5537016;32;35086;-60
2023/07/21 04:46:52;;;;;;;10.85;2.65;;;;;;;21.46;81.58;100037.13;5529780;32;33884;-61
2023/07/21 04:49:55;;;;;;;4.78;2.60;;;;;;;21.55;81.12;100042.91;5515954;32;34420;-61
2023/07/21 04:52:58;;;;;;;6.15;2.60;;;;;;;21.40;82.25;100046.19;5516694;32;33920;-61
2023/07/21 04:56:01;;;;;;;6.43;2.70;;;;;;;21.32;84.60;100038.53;5545766;32;34086;-61
2023/07/21 04:59:04;;;;;;;8.45;2.72;;;;;;;21.57;83.20;100030.00;5548927;32;35441;-61
2023/07/21 05:02:10;;;;;;;17.67;2.87;;;;;;;21.71;84.08;100031.28;5549116;32;34752;-61
2023/07/21 05:05:13;;;;;;;10.13;2.60;;;;;;;21.96;81.66;100033.53;5534890;32;33751;-61
2023/07/21 05:08:17;;;;;;;6.45;2.75;;;;;;;22.07;78.96;100041.50;5547233;32;34156;-61
2023/07/21 05:11:21;;;;;;;6.43;2.70;;;;;;;22.21;78.45;100041.97;5548649;32;34017;-61
2023/07/21 05:14:24;;;;;;;5.30;2.40;;;;;;;22.32;77.81;100048.28;5548858;32;33800;-61
2023/07/21 05:17:27;;;;;;;7.30;2.95;;;;;;;22.32;77.59;100054.50;5548546;32;34073;-61
2023/07/21 05:20:32;;;;;;;6.93;2.72;;;;;;;22.35;78.19;100059.44;5548819;32;34008;-60
2023/07/21 05:23:35;;;;;;;32.58;3.72;;;;;;;22.32;78.67;100056.38;5548292;32;33136;-60
2023/07/21 05:26:39;;;;;;;16.35;3.08;;;;;;;22.40;80.17;100055.97;5548651;32;32717;-60
2023/07/21 05:29:43;;;;;;;16.55;3.55;;;;;;;22.51;80.27;100052.31;5548334;32;32134;-61
2023/07/21 05:32:47;;;;;;;7.62;3.00;;;;;;;22.61;79.02;100051.59;5521828;32;34747;-61
2023/07/21 05:35:50;;;;;;;7.65;3.20;;;;;;;22.34;81.07;100054.25;5515738;32;34856;-61
2023/07/21 05:38:55;;;;;;;8.25;3.15;;;;;;;22.22;81.58;100040.87;5528819;32;34745;-61
2023/07/21 05:41:59;;;;;;;11.23;3.30;;;;;;;22.51;78.78;100039.59;5528364;32;34242;-61
2023/07/21 05:45:05;;;;;;;7.03;3.20;;;;;;;22.41;79.48;100044.09;5528748;32;34441;-60
2023/07/21 05:48:09;;;;;;;5.97;2.80;;;;;;;22.59;77.81;100045.62;5514982;32;34348;-61
2023/07/21 05:51:13;;;;;;;10.90;3.17;;;;;;;22.75;76.87;100025.81;5528615;32;33840;-61
2023/07/21 05:54:17;;;;;;;8.98;3.50;;;;;;;22.58;81.07;100020.47;5530324;32;33877;-60
2023/07/21 05:57:20;;;;;;;29.27;3.53;;;;;;;22.58;80.51;100016.94;5547679;32;34257;-62
2023/07/21 06:00:23;;;;;;;6.15;3.10;;;;;;;22.88;77.57;100020.81;5547797;32;34093;-60
2023/07/21 06:03:28;;;;;;;6.22;2.58;;;;;;;23.02;75.70;100033.91;5547825;32;34154;-61
2023/07/21 06:06:32;;;;;;;12.25;3.00;;;;;;;23.37;73.45;100042.31;5533969;32;34053;-61
2023/07/21 06:09:36;;;;;;;8.80;3.00;;;;;;;24.01;69.36;100026.72;5533244;32;34129;-61
2023/07/21 06:12:39;;;;;;;61.37;5.10;;;;;;;24.21;66.64;100034.16;5532556;32;34057;-61
2023/07/21 06:15:43;;;;;;;16.60;3.15;;;;;;;24.15;66.79;100025.19;5523177;32;34107;-60
2023/07/21 06:18:46;;;;;;;13.77;2.87;;;;;;;24.05;67.26;100011.59;5539771;32;34175;-61
2023/07/21 06:21:50;;;;;;;41.15;4.10;;;;;;;24.20;67.42;100027.13;5539719;32;33008;-60
2023/07/21 06:24:55;;;;;;;19.05;2.97;;;;;;;24.26;67.41;100039.59;5523438;32;34659;-60
2023/07/21 06:28:02;;;;;;;11.80;2.90;;;;;;;23.99;67.54;100050.56;5523290;32;35547;-60
2023/07/21 06:31:06;;;;;;;8.90;2.70;;;;;;;23.44;69.95;100056.41;5541313;32;34601;-60
2023/07/21 06:34:11;;;;;;;18.60;3.10;;;;;;;23.42;71.04;100052.34;5534935;32;34608;-60
2023/07/21 06:37:14;;;;;;;11.88;3.17;;;;;;;22.94;74.75;100049.53;5533673;32;33847;-60
2023/07/21 06:40:18;;;;;;;17.55;3.58;;;;;;;22.54;75.08;100049.91;5522607;32;34079;-60
2023/07/21 06:43:22;;;;;;;10.90;3.28;;;;;;;22.50;78.10;100059.59;5546648;32;34138;-60
2023/07/21 06:46:26;;;;;;;7.93;2.67;;;;;;;22.51;77.42;100068.53;5529378;32;34153;-60
2023/07/21 06:49:29;;;;;;;11.65;2.95;;;;;;;22.47;76.27;100070.09;5526918;32;34054;-60
2023/07/21 06:52:34;;;;;;;8.05;2.92;;;;;;;22.40;79.02;100067.59;5541296;32;34430;-60
2023/07/21 06:55:37;;;;;;;11.10;3.20;;;;;;;22.50;79.30;100064.19;5524700;32;34122;-60
2023/07/21 06:58:43;;;;;;;10.95;3.17;;;;;;;22.46;78.18;100068.47;5538754;32;33990;-60
2023/07/21 07:01:46;;;;;;;11.98;3.30;;;;;;;22.40;79.69;100058.66;5530443;32;35081;-61
2023/07/21 07:04:51;;;;;;;11.02;3.40;;;;;;;22.66;79.21;100059.75;5514344;32;33999;-60
2023/07/21 07:07:55;;;;;;;11.57;3.33;;;;;;;22.75;79.11;100055.56;5527776;32;33723;-60
2023/07/21 07:10:58;;;;;;;13.57;4.03;;;;;;;22.89;76.79;100064.91;5527146;32;34260;-60
2023/07/21 07:14:00;;;;;;;11.05;3.00;;;;;;;22.82;78.65;100064.28;5526903;32;34069;-60
2023/07/21 07:17:06;;;;;;;16.48;3.30;;;;;;;22.76;79.22;100058.00;5527867;32;34720;-60
2023/07/21 07:20:11;;;;;;;7.03;3.00;;;;;;;23.16;76.67;100062.97;5528043;32;35111;-61
2023/07/21 07:23:18;;;;;;;5.68;2.97;;;;;;;23.10;76.24;100057.78;5527976;32;34781;-60
2023/07/21 07:26:22;;;;;;;19.00;3.55;;;;;;;23.01;76.98;100049.31;5514383;32;34179;-61
2023/07/21 07:29:25;;;;;;;9.20;3.12;;;;;;;23.03;77.51;100036.34;5527824;32;33909;-62
2023/07/21 07:32:29;;;;;;;8.82;3.12;;;;;;;23.04;81.16;100029.06;5514580;32;35390;-61
2023/07/21 07:35:32;;;;;;;9.25;2.70;;;;;;;23.27;77.71;100020.56;5528027;32;34972;-62
2023/07/21 07:38:35;;;;;;;10.45;3.28;;;;;;;23.57;76.91;100020.81;5528001;32;34047;-62
2023/07/21 07:41:39;;;;;;;12.82;2.97;;;;;;;23.43;80.08;100019.59;5514088;32;35720;-61
2023/07/21 07:44:44;;;;;;;13.00;3.10;;;;;;;23.85;76.17;100016.91;5527510;32;34649;-61
2023/07/21 07:47:50;;;;;;;15.30;3.45;;;;;;;23.93;73.18;100008.25;5514160;32;34776;-61
2023/07/21 07:50:53;;;;;;;12.20;3.10;;;;;;;24.29;72.26;100019.28;5527424;32;32930;-62
2023/07/21 07:53:57;;;;;;;11.65;2.95;;;;;;;24.46;69.93;100025.28;5527400;32;34117;-61
2023/07/21 07:57:00;;;;;;;8.63;3.12;;;;;;;24.48;69.80;100018.53;5527577;32;34292;-61
2023/07/21 08:00:08;;;;;;;10.65;2.90;;;;;;;24.56;68.91;100022.59;5514156;32;33987;-61
2023/07/21 08:03:14;;;;;;;11.12;2.87;;;;;;;25.22;65.51;100025.41;5513743;32;33925;-62
2023/07/21 08:06:17;;;;;;;15.43;3.45;;;;;;;25.12;65.19;100025.41;5527470;32;34154;-62
2023/07/21 08:09:22;;;;;;;36.05;4.03;;;;;;;25.91;63.71;100031.81;5514046;32;34586;-62
2023/07/21 08:12:28;;;;;;;17.75;3.15;;;;;;;26.86;59.41;100022.66;5541422;32;34508;-62
2023/07/21 08:15:31;;;;;;;8.07;2.67;;;;;;;26.04;59.44;100016.84;5523500;32;33994;-63
2023/07/21 08:18:34;;;;;;;9.60;3.22;;;;;;;26.77;59.56;100017.00;5531853;32;34586;-63
2023/07/21 08:21:37;;;;;;;10.45;2.80;;;;;;;25.86;61.08;100020.97;5546550;32;34618;-63
2023/07/21 08:24:40;;;;;;;8.55;2.62;;;;;;;25.68;62.64;100018.84;5546437;32;34707;-62
2023/07/21 08:27:43;;;;;;;10.38;2.92;;;;;;;26.00;62.54;100017.66;5532623;32;34763;-62
2023/07/21 08:30:46;;;;;;;26.25;3.72;;;;;;;26.65;60.09;100019.25;5546198;32;34662;-62
2023/07/21 08:34:00;;;;;;;7.37;3.20;;;;;;;27.45;56.65;100017.78;5546285;32;33827;-62
2023/07/21 08:37:05;;;;;;;13.90;3.28;;;;;;;27.80;55.74;100021.25;5545752;32;34009;-62
2023/07/21 08:40:08;;;;;;;51.67;4.90;;;;;;;28.59;53.05;100022.47;5541616;32;33824;-62
2023/07/21 08:43:11;;;;;;;10.98;2.83;;;;;;;28.93;52.49;100015.69;5527237;32;33868;-62
2023/07/21 08:46:15;;;;;;;8.05;3.25;;;;;;;28.41;52.35;100007.72;5541290;32;34733;-62
2023/07/21 08:49:18;;;;;;;9.65;3.08;;;;;;;28.34;54.13;100012.72;5539843;32;33663;-62
2023/07/21 08:52:21;;;;;;;26.62;3.45;;;;;;;28.75;51.98;100012.97;5542164;32;34680;-62
2023/07/21 08:55:25;;;;;;;18.80;3.28;;;;;;;28.89;50.90;100017.38;5545700;32;35559;-62
2023/07/21 08:58:28;;;;;;;5.72;2.95;;;;;;;28.84;51.67;100012.00;5531254;32;33955;-61
2023/07/21 09:01:31;;;;;;;5.62;2.78;;;;;;;28.87;50.55;100014.13;5531658;32;33972;-61
2023/07/21 09:04:34;;;;;;;19.30;3.12;;;;;;;28.63;51.29;100015.31;5537811;32;33819;-61
2023/07/21 09:07:41;;;;;;;10.00;3.00;;;;;;;28.25;53.04;100003.56;5526165;32;34911;-61
2023/07/21 09:10:44;;;;;;;41.20;4.15;;;;;;;28.64;51.38;99998.63;5542333;32;34312;-61
2023/07/21 09:13:56;;;;;;;11.35;3.03;;;;;;;29.70;48.35;99999.56;5544830;32;34857;-62
2023/07/21 09:16:59;;;;;;;15.55;3.00;;;;;;;29.82;48.30;100003.75;5538065;32;34088;-61
2023/07/21 09:20:07;;;;;;;7.70;2.95;;;;;;;30.78;45.89;99998.94;5515302;32;35198;-61
2023/07/21 09:23:10;;;;;;;18.90;2.92;;;;;;;31.54;44.31;99994.25;5529350;32;34526;-62
2023/07/21 09:26:20;;;;;;;12.13;3.00;;;;;;;30.57;45.43;99982.97;5534781;32;34018;-62
2023/07/21 09:29:24;;;;;;;7.68;2.83;;;;;;;31.27;43.97;99990.59;5541687;32;34205;-62
2023/07/21 09:32:28;;;;;;;23.38;3.55;;;;;;;30.84;45.04;99995.75;5522277;32;34741;-63
2023/07/21 09:35:31;;;;;;;7.28;2.87;;;;;;;30.80;44.17;99999.41;5546746;32;34497;-62
2023/07/21 09:38:35;;;;;;;7.82;2.78;;;;;;;29.50;47.13;100012.81;5542763;32;34313;-62
2023/07/21 09:41:39;;;;;;;6.80;4.37;;;;;;;28.99;48.72;100012.88;5532535;32;33648;-62
2023/07/21 09:44:48;;;;;;;7.82;2.80;;;;;;;29.24;48.21;100017.91;5546719;32;34740;-63
2023/07/21 09:47:50;;;;;;;8.82;3.30;;;;;;;29.30;47.46;100014.81;5529412;32;33706;-62
2023/07/21 09:51:03;;;;;;;6.90;3.10;;;;;;;29.32;47.01;100009.84;5532838;32;33707;-62
2023/07/21 09:54:08;;;;;;;11.57;2.97;;;;;;;29.64;46.51;99994.50;5533280;32;34804;-62
2023/07/21 09:57:16;;;;;;;13.75;3.00;;;;;;;29.88;46.61;99991.56;5534034;32;34044;-62
2023/07/21 10:00:20;;;;;;;7.18;2.95;;;;;;;31.46;42.34;99993.09;5528659;32;34150;-61
2023/07/21 10:03:24;;;;;;;11.93;2.90;;;;;;;31.04;42.96;99995.28;5533378;32;33452;-61
2023/07/21 10:06:32;;;;;;;10.30;2.65;;;;;;;31.36;42.20;99990.62;5538100;32;34699;-61
2023/07/21 10:09:38;;;;;;;7.25;2.55;;;;;;;30.53;42.08;99990.19;5515375;32;34864;-62
2023/07/21 10:12:52;;;;;;;9.32;2.58;;;;;;;31.33;42.62;99977.53;5528533;32;35071;-62
2023/07/21 10:16:07;;;;;;;6.12;2.60;;;;;;;33.46;38.70;99993.81;5514784;32;34022;-62
2023/07/21 10:19:11;;;;;;;9.70;2.55;;;;;;;32.35;40.32;99988.06;5515020;32;34035;-62
2023/07/21 10:22:24;;;;;;;6.05;2.53;;;;;;;32.30;39.55;99980.00;5528713;32;34139;-61
2023/07/21 10:25:26;;;;;;;4.35;2.62;;;;;;;32.54;38.89;99971.28;5547591;32;34742;-62
2023/07/21 10:28:30;;;;;;;9.70;2.78;;;;;;;31.73;39.04;99968.22;5547214;32;34029;-62
2023/07/21 10:31:36;;;;;;;5.18;2.40;;;;;;;33.23;37.68;99967.69;5534450;32;33983;-62
2023/07/21 10:34:43;;;;;;;5.95;2.40;;;;;;;32.38;37.89;99956.44;5534521;32;34336;-62
2023/07/21 10:38:14;;;;;;;9.98;3.25;;;;;;;31.50;40.67;99952.97;5533116;32;34379;-62
2023/07/21 10:41:18;;;;;;;7.10;2.58;;;;;;;31.81;40.40;99955.66;5534279;32;34769;-62
2023/07/21 10:44:30;;;;;;;13.65;3.00;;;;;;;30.93;41.97;99950.06;5547355;32;34642;-62
2023/07/21 10:47:34;;;;;;;7.03;2.58;;;;;;;29.55;45.01;99956.13;5547463;32;34086;-61
2023/07/21 10:50:57;;;;;;;6.35;2.75;;;;;;;30.46;42.51;99943.25;5547433;32;34950;-61
2023/07/21 10:54:01;;;;;;;10.63;2.50;;;;;;;32.09;39.28;99942.50;5547160;32;33967;-61
2023/07/21 10:57:04;;;;;;;10.20;2.83;;;;;;;33.69;36.50;99942.13;5547488;32;34006;-60
2023/07/21 11:00:09;;;;;;;5.97;2.30;;;;;;;33.85;35.57;99934.91;5547821;32;34546;-61
2023/07/21 11:03:12;;;;;;;11.38;2.87;;;;;;;33.86;35.16;99942.81;5547703;32;34131;-61
2023/07/21 11:06:16;;;;;;;8.80;2.65;;;;;;;32.02;39.25;99933.91;5533782;32;34168;-61
2023/07/21 11:09:21;;;;;;;8.20;2.80;;;;;;;32.17;39.11;99930.75;5534091;32;33928;-61
2023/07/21 11:12:24;;;;;;;8.68;2.30;;;;;;;31.33;40.91;99930.94;5547350;32;34897;-61
2023/07/21 11:15:27;;;;;;;14.82;2.90;;;;;;;30.19;40.46;99925.00;5547431;32;34143;-60
2023/07/21 11:18:33;;;;;;;7.00;2.65;;;;;;;29.22;41.79;99921.75;5530185;32;34004;-61
2023/07/21 11:21:37;;;;;;;9.05;2.40;;;;;;;28.32;43.65;99928.41;5528003;32;34882;-60
2023/07/21 11:24:40;;;;;;;13.68;2.58;;;;;;;28.26;43.44;99915.97;5537076;32;34320;-61
2023/07/21 11:27:45;;;;;;;7.07;2.35;;;;;;;28.15;43.35;99910.97;5533985;32;33837;-61
2023/07/21 11:30:48;;;;;;;10.43;2.30;;;;;;;28.08;44.46;99906.66;5533045;32;34023;-61
2023/07/21 11:33:51;;;;;;;6.53;2.47;;;;;;;27.57;45.22;99902.97;5547083;32;33819;-61
2023/07/21 11:36:58;;;;;;;9.52;2.55;;;;;;;27.16;47.00;99905.31;5547016;32;34496;-60
2023/07/21 11:40:07;;;;;;;10.05;3.10;;;;;;;27.09;46.95;99921.19;5546088;32;33675;-61
2023/07/21 11:43:12;;;;;;;5.65;2.78;;;;;;;26.85;48.29;99923.84;5533687;32;33362;-61
2023/07/21 11:46:24;;;;;;;5.60;2.87;;;;;;;26.83;48.64;99931.47;5546284;32;34137;-60
2023/07/21 11:49:28;;;;;;;5.10;2.50;;;;;;;26.66;49.08;99940.06;5533178;32;34939;-61
2023/07/21 11:52:33;;;;;;;14.48;2.70;;;;;;;26.58;51.86;99934.38;5546472;32;34055;-61
2023/07/21 11:55:36;;;;;;;15.60;3.00;;;;;;;26.47;61.02;99939.13;5527955;32;33848;-60
2023/07/21 11:58:39;;;;;;;4.70;2.42;;;;;;;25.70;68.42;99945.22;5527811;32;33860;-61
2023/07/21 12:01:42;;;;;;;5.85;2.85;;;;;;;25.33;64.89;99932.78;5527703;32;34074;-60
2023/07/21 12:04:45;;;;;;;5.22;2.62;;;;;;;25.17;69.11;99919.53;5513966;32;34005;-60
2023/07/21 12:07:49;;;;;;;10.73;2.95;;;;;;;25.40;69.82;99903.47;5514230;32;34109;-61
2023/07/21 12:10:52;;;;;;;10.77;2.80;;;;;;;25.89;68.02;99913.59;5527677;32;33750;-61
2023/07/21 12:13:55;;;;;;;5.85;2.60;;;;;;;26.31;65.95;99915.81;5514414;32;34759;-61
2023/07/21 12:16:58;;;;;;;6.37;2.60;;;;;;;26.86;63.66;99914.63;5527364;32;34306;-60
2023/07/21 12:20:01;;;;;;;7.05;2.62;;;;;;;28.24;56.42;99923.63;5527253;32;34055;-61
2023/07/21 12:23:04;;;;;;;10.68;3.03;;;;;;;28.96;56.78;99924.13;5527679;32;34359;-61
2023/07/21 12:26:08;;;;;;;11.80;2.60;;;;;;;30.29;50.87;99920.41;5527483;32;34038;-61
2023/07/21 12:29:11;;;;;;;14.07;2.78;;;;;;;32.58;43.16;99928.28;5513380;32;34377;-61
2023/07/21 12:32:19;;;;;;;4.75;2.15;;;;;;;33.87;39.58;99922.44;5527280;32;33860;-62
2023/07/21 12:35:22;;;;;;;7.68;3.08;;;;;;;34.93;37.15;99909.09;5513436;32;34646;-61
2023/07/21 12:38:25;;;;;;;6.53;2.53;;;;;;;35.17;36.24;99917.44;5513637;32;34176;-62
2023/07/21 12:41:28;;;;;;;4.72;2.37;;;;;;;34.45;35.95;99923.47;5513892;32;34196;-62
2023/07/21 12:44:31;;;;;;;6.47;1.95;;;;;;;34.29;35.24;99912.25;5500514;32;33910;-62
2023/07/21 12:47:35;;;;;;;7.50;2.03;;;;;;;34.86;32.24;99919.84;5543904;32;33899;-61
2023/07/21 12:50:38;;;;;;;5.03;2.20;;;;;;;32.24;36.79;99917.34;5547317;32;34580;-61
2023/07/21 12:53:41;;;;;;;8.55;2.22;;;;;;;30.52;41.58;99919.31;5545129;32;34580;-61
2023/07/21 12:56:44;;;;;;;8.98;2.42;;;;;;;30.07;43.34;99921.16;5534848;32;34121;-62
2023/07/21 12:59:47;;;;;;;4.68;2.10;;;;;;;30.91;41.10;99921.34;5539353;32;33164;-61
2023/07/21 13:02:50;;;;;;;7.55;2.47;;;;;;;30.36;42.34;99929.78;5547988;32;34378;-62
2023/07/21 13:05:53;;;;;;;9.73;2.70;;;;;;;30.54;42.39;99930.78;5548685;32;34050;-62
2023/07/21 13:08:59;;;;;;;5.70;2.90;;;;;;;29.26;45.31;99941.91;5548931;32;32973;-61
2023/07/21 13:12:02;;;;;;;7.80;2.87;;;;;;;27.82;51.35;99937.28;5547517;32;34711;-61
2023/07/21 13:15:09;;;;;;;6.07;2.55;;;;;;;26.67;59.20;99935.44;5547607;32;34825;-61
2023/07/21 13:18:12;;;;;;;7.20;2.58;;;;;;;26.25;62.84;99944.12;5547923;32;33955;-62
2023/07/21 13:21:15;;;;;;;7.93;2.55;;;;;;;25.66;63.76;99941.44;5548011;32;33596;-61
2023/07/21 13:24:18;;;;;;;7.25;2.83;;;;;;;26.11;61.17;99943.09;5548236;32;34184;-61
2023/07/21 13:27:22;;;;;;;7.30;2.55;;;;;;;26.07;58.89;99932.00;5537677;32;34610;-62
2023/07/21 13:30:25;;;;;;;7.62;2.37;;;;;;;25.82;58.46;99924.78;5524537;32;33712;-61
2023/07/21 13:33:28;;;;;;;9.70;2.70;;;;;;;26.92;54.11;99918.88;5523017;32;34594;-61
2023/07/21 13:36:31;;;;;;;8.15;2.80;;;;;;;28.03;51.95;99916.84;5527029;32;34246;-62
2023/07/21 13:39:34;;;;;;;4.55;2.28;;;;;;;30.06;46.45;99903.16;5536014;32;34753;-61
2023/07/21 13:42:37;;;;;;;7.60;2.25;;;;;;;29.79;45.77;99896.56;5532431;32;34069;-62
2023/07/21 13:45:40;;;;;;;5.97;2.30;;;;;;;26.61;52.40;99887.59;5528769;32;33948;-61
2023/07/21 13:48:43;;;;;;;4.32;2.30;;;;;;;26.16;53.18;99884.06;5535343;32;33871;-62
2023/07/21 13:51:46;;;;;;;5.28;2.50;;;;;;;26.17;54.84;99885.72;5519631;32;35116;-62
2023/07/21 13:54:52;;;;;;;8.45;2.20;;;;;;;26.17;56.14;99879.44;5543847;32;34285;-62
2023/07/21 13:57:55;;;;;;;4.00;2.60;;;;;;;26.04;57.04;99885.53;5542094;32;33922;-61
2023/07/21 14:00:59;;;;;;;11.23;3.40;;;;;;;25.28;61.29;99883.94;5526533;32;33955;-64
2023/07/21 14:04:02;;;;;;;14.02;3.15;;;;;;;24.93;63.15;99870.47;5533693;32;34624;-61
2023/07/21 14:07:05;;;;;;;6.90;2.55;;;;;;;24.80;64.12;99876.41;5547153;32;34285;-61
2023/07/21 14:10:09;;;;;;;10.18;2.92;;;;;;;25.00;64.58;99869.06;5546962;32;34093;-61
2023/07/21 14:13:12;;;;;;;13.55;3.10;;;;;;;24.80;66.44;99874.50;5543503;32;34214;-61
2023/07/21 14:16:15;;;;;;;6.65;3.00;;;;;;;24.93;66.72;99873.19;5532073;32;34159;-61
2023/07/21 14:19:18;;;;;;;12.95;2.85;;;;;;;24.87;67.43;99856.09;5545746;32;34204;-62